sensor_id;sensor_type;location;lat;lon;timestamp;P1;durP1;ratioP1;P2;durP2;ratioP2
19754;SDS011;10036;47.812;9.274;2023-05-07T00:00:46;4.65;;;4.05;;
19754;SDS011;10036;47.812;9.274;2023-05-07T00:03:14;8.23;;;4.63;;
19754;SDS011;10036;47.812;9.274;2023-05-07T00:05:41;8.45;;;4.85;;
19754;SDS011;10036;47.812;9.274;2023-05-07T00:08:08;7.10;;;4.38;;
19754;SDS011;10036;47.812;9.274;2023-05-07T00:10:35;5.07;;;4.22;;
19754;SDS011;10036;47.812;9.274;2023-05-07T00:13:02;6.45;;;4.43;;
19754;SDS011;10036;47.812;9.274;2023-05-07T00:15:28;5.13;;;4.10;;
19754;SDS011;10036;47.812;9.274;2023-05-07T00:17:55;5.07;;;4.28;;
19754;SDS011;10036;47.812;9.274;2023-05-07T00:20:27;6.65;;;4.22;;
19754;SDS011;10036;47.812;9.274;2023-05-07T00:22:54;5.88;;;4.30;;
19754;SDS011;10036;47.812;9.274;2023-05-07T00:25:21;10.75;;;4.63;;
19754;SDS011;10036;47.812;9.274;2023-05-07T00:27:48;5.60;;;4.35;;
19754;SDS011;10036;47.812;9.274;2023-05-07T00:30:15;8.77;;;4.88;;
19754;SDS011;10036;47.812;9.274;2023-05-07T00:32:41;6.28;;;5.13;;
19754;SDS011;10036;47.812;9.274;2023-05-07T00:35:10;6.00;;;5.05;;
19754;SDS011;10036;47.812;9.274;2023-05-07T00:37:38;8.90;;;4.93;;
19754;SDS011;10036;47.812;9.274;2023-05-07T00:40:06;5.43;;;4.63;;
19754;SDS011;10036;47.812;9.274;2023-05-07T00:42:34;5.38;;;4.13;;
19754;SDS011;10036;47.812;9.274;2023-05-07T00:45:00;7.90;;;4.45;;
19754;SDS011;10036;47.812;9.274;2023-05-07T00:47:28;8.80;;;4.40;;
19754;SDS011;10036;47.812;9.274;2023-05-07T00:49:55;8.23;;;5.47;;
19754;SDS011;10036;47.812;9.274;2023-05-07T00:52:23;9.23;;;5.95;;
19754;SDS011;10036;47.812;9.274;2023-05-07T00:54:53;10.13;;;7.43;;
19754;SDS011;10036;47.812;9.274;2023-05-07T00:57:21;6.60;;;5.07;;
19754;SDS011;10036;47.812;9.274;2023-05-07T00:59:50;7.25;;;4.82;;
19754;SDS011;10036;47.812;9.274;2023-05-07T01:02:18;5.82;;;4.50;;
19754;SDS011;10036;47.812;9.274;2023-05-07T01:04:45;7.72;;;4.55;;
19754;SDS011;10036;47.812;9.274;2023-05-07T01:07:11;4.75;;;4.28;;
19754;SDS011;10036;47.812;9.274;2023-05-07T01:09:39;5.78;;;4.40;;
19754;SDS011;10036;47.812;9.274;2023-05-07T01:12:07;5.05;;;4.20;;
19754;SDS011;10036;47.812;9.274;2023-05-07T01:14:35;6.13;;;4.20;;
19754;SDS011;10036;47.812;9.274;2023-05-07T01:17:02;5.05;;;4.13;;
19754;SDS011;10036;47.812;9.274;2023-05-07T01:19:29;7.03;;;4.30;;
19754;SDS011;10036;47.812;9.274;2023-05-07T01:21:58;6.38;;;4.53;;
19754;SDS011;10036;47.812;9.274;2023-05-07T01:24:30;6.07;;;4.88;;
19754;SDS011;10036;47.812;9.274;2023-05-07T01:26:58;6.93;;;4.45;;
19754;SDS011;10036;47.812;9.274;2023-05-07T01:29:26;11.68;;;5.15;;
19754;SDS011;10036;47.812;9.274;2023-05-07T01:31:55;6.55;;;4.20;;
19754;SDS011;10036;47.812;9.274;2023-05-07T01:34:24;6.85;;;4.53;;
19754;SDS011;10036;47.812;9.274;2023-05-07T01:36:53;7.35;;;4.47;;
19754;SDS011;10036;47.812;9.274;2023-05-07T01:39:23;7.13;;;4.40;;
19754;SDS011;10036;47.812;9.274;2023-05-07T01:41:53;7.65;;;4.60;;
19754;SDS011;10036;47.812;9.274;2023-05-07T01:44:20;6.72;;;4.68;;
19754;SDS011;10036;47.812;9.274;2023-05-07T01:46:48;7.00;;;4.45;;
19754;SDS011;10036;47.812;9.274;2023-05-07T01:49:15;5.85;;;4.47;;
19754;SDS011;10036;47.812;9.274;2023-05-07T01:51:43;4.60;;;3.90;;
19754;SDS011;10036;47.812;9.274;2023-05-07T01:54:10;6.47;;;4.10;;
19754;SDS011;10036;47.812;9.274;2023-05-07T01:56:37;7.53;;;5.05;;
19754;SDS011;10036;47.812;9.274;2023-05-07T01:59:05;5.75;;;4.68;;
19754;SDS011;10036;47.812;9.274;2023-05-07T02:01:32;7.85;;;5.15;;
19754;SDS011;10036;47.812;9.274;2023-05-07T02:03:59;6.88;;;4.60;;
19754;SDS011;10036;47.812;9.274;2023-05-07T02:06:26;6.78;;;4.53;;
19754;SDS011;10036;47.812;9.274;2023-05-07T02:08:53;7.22;;;4.60;;
19754;SDS011;10036;47.812;9.274;2023-05-07T02:11:20;5.97;;;5.00;;
19754;SDS011;10036;47.812;9.274;2023-05-07T02:13:47;7.60;;;5.20;;
19754;SDS011;10036;47.812;9.274;2023-05-07T02:16:15;6.38;;;4.60;;
19754;SDS011;10036;47.812;9.274;2023-05-07T02:18:42;8.05;;;4.88;;
19754;SDS011;10036;47.812;9.274;2023-05-07T02:21:09;8.63;;;4.65;;
19754;SDS011;10036;47.812;9.274;2023-05-07T02:23:36;5.72;;;5.18;;
19754;SDS011;10036;47.812;9.274;2023-05-07T02:26:03;6.72;;;5.32;;
19754;SDS011;10036;47.812;9.274;2023-05-07T02:28:31;6.60;;;5.15;;
19754;SDS011;10036;47.812;9.274;2023-05-07T02:31:00;5.30;;;4.80;;
19754;SDS011;10036;47.812;9.274;2023-05-07T02:33:29;5.40;;;4.82;;
19754;SDS011;10036;47.812;9.274;2023-05-07T02:35:56;5.53;;;4.95;;
19754;SDS011;10036;47.812;9.274;2023-05-07T02:38:30;7.90;;;5.30;;
19754;SDS011;10036;47.812;9.274;2023-05-07T02:40:57;5.55;;;4.82;;
19754;SDS011;10036;47.812;9.274;2023-05-07T02:43:24;7.45;;;4.65;;
19754;SDS011;10036;47.812;9.274;2023-05-07T02:45:59;7.07;;;4.72;;
19754;SDS011;10036;47.812;9.274;2023-05-07T02:48:27;5.60;;;5.10;;
19754;SDS011;10036;47.812;9.274;2023-05-07T02:50:55;5.82;;;5.20;;
19754;SDS011;10036;47.812;9.274;2023-05-07T02:53:22;5.60;;;5.07;;
19754;SDS011;10036;47.812;9.274;2023-05-07T02:55:51;6.15;;;5.22;;
19754;SDS011;10036;47.812;9.274;2023-05-07T02:58:18;6.90;;;5.05;;
19754;SDS011;10036;47.812;9.274;2023-05-07T03:00:45;5.63;;;4.78;;
19754;SDS011;10036;47.812;9.274;2023-05-07T03:03:12;6.03;;;4.75;;
19754;SDS011;10036;47.812;9.274;2023-05-07T03:05:39;6.63;;;4.88;;
19754;SDS011;10036;47.812;9.274;2023-05-07T03:08:07;6.00;;;5.43;;
19754;SDS011;10036;47.812;9.274;2023-05-07T03:10:34;6.88;;;5.05;;
19754;SDS011;10036;47.812;9.274;2023-05-07T03:13:02;6.22;;;5.30;;
19754;SDS011;10036;47.812;9.274;2023-05-07T03:15:29;8.20;;;5.43;;
19754;SDS011;10036;47.812;9.274;2023-05-07T03:17:56;6.22;;;5.30;;
19754;SDS011;10036;47.812;9.274;2023-05-07T03:20:23;5.72;;;5.18;;
19754;SDS011;10036;47.812;9.274;2023-05-07T03:22:49;5.35;;;4.85;;
19754;SDS011;10036;47.812;9.274;2023-05-07T03:25:18;6.00;;;4.82;;
19754;SDS011;10036;47.812;9.274;2023-05-07T03:27:45;5.82;;;5.18;;
19754;SDS011;10036;47.812;9.274;2023-05-07T03:30:12;5.60;;;5.03;;
19754;SDS011;10036;47.812;9.274;2023-05-07T03:32:39;6.78;;;4.93;;
19754;SDS011;10036;47.812;9.274;2023-05-07T03:35:07;4.97;;;4.47;;
19754;SDS011;10036;47.812;9.274;2023-05-07T03:37:34;4.93;;;4.43;;
19754;SDS011;10036;47.812;9.274;2023-05-07T03:40:01;4.88;;;4.45;;
19754;SDS011;10036;47.812;9.274;2023-05-07T03:42:30;6.90;;;4.72;;
19754;SDS011;10036;47.812;9.274;2023-05-07T03:44:57;6.38;;;5.22;;
19754;SDS011;10036;47.812;9.274;2023-05-07T03:47:24;7.13;;;4.80;;
19754;SDS011;10036;47.812;9.274;2023-05-07T03:49:51;7.03;;;4.75;;
19754;SDS011;10036;47.812;9.274;2023-05-07T03:52:19;4.88;;;4.45;;
19754;SDS011;10036;47.812;9.274;2023-05-07T03:54:50;6.55;;;4.90;;
19754;SDS011;10036;47.812;9.274;2023-05-07T03:57:18;6.13;;;4.55;;
19754;SDS011;10036;47.812;9.274;2023-05-07T03:59:46;5.05;;;4.47;;
19754;SDS011;10036;47.812;9.274;2023-05-07T04:02:13;5.60;;;5.05;;
19754;SDS011;10036;47.812;9.274;2023-05-07T04:04:39;4.80;;;4.30;;
19754;SDS011;10036;47.812;9.274;2023-05-07T04:07:06;5.70;;;4.97;;
19754;SDS011;10036;47.812;9.274;2023-05-07T04:09:33;5.30;;;4.80;;
19754;SDS011;10036;47.812;9.274;2023-05-07T04:12:00;5.82;;;5.32;;
19754;SDS011;10036;47.812;9.274;2023-05-07T04:14:27;6.45;;;5.20;;
19754;SDS011;10036;47.812;9.274;2023-05-07T04:16:56;7.72;;;5.38;;
19754;SDS011;10036;47.812;9.274;2023-05-07T04:19:23;5.32;;;4.82;;
19754;SDS011;10036;47.812;9.274;2023-05-07T04:21:50;5.82;;;5.18;;
19754;SDS011;10036;47.812;9.274;2023-05-07T04:24:17;5.75;;;5.25;;
19754;SDS011;10036;47.812;9.274;2023-05-07T04:26:44;9.38;;;5.45;;
19754;SDS011;10036;47.812;9.274;2023-05-07T04:29:11;6.45;;;5.82;;
19754;SDS011;10036;47.812;9.274;2023-05-07T04:31:38;7.70;;;5.70;;
19754;SDS011;10036;47.812;9.274;2023-05-07T04:34:06;5.78;;;5.20;;
19754;SDS011;10036;47.812;9.274;2023-05-07T04:36:34;8.00;;;5.15;;
19754;SDS011;10036;47.812;9.274;2023-05-07T04:39:02;6.25;;;4.95;;
19754;SDS011;10036;47.812;9.274;2023-05-07T04:41:29;5.90;;;5.13;;
19754;SDS011;10036;47.812;9.274;2023-05-07T04:43:56;8.25;;;5.28;;
19754;SDS011;10036;47.812;9.274;2023-05-07T04:46:23;7.75;;;5.82;;
19754;SDS011;10036;47.812;9.274;2023-05-07T04:48:50;7.82;;;5.72;;
19754;SDS011;10036;47.812;9.274;2023-05-07T04:51:19;12.80;;;6.35;;
19754;SDS011;10036;47.812;9.274;2023-05-07T04:53:45;7.82;;;5.90;;
19754;SDS011;10036;47.812;9.274;2023-05-07T04:56:12;5.53;;;5.03;;
19754;SDS011;10036;47.812;9.274;2023-05-07T04:58:39;5.78;;;5.20;;
19754;SDS011;10036;47.812;9.274;2023-05-07T05:01:06;7.28;;;5.53;;
19754;SDS011;10036;47.812;9.274;2023-05-07T05:03:33;6.57;;;5.90;;
19754;SDS011;10036;47.812;9.274;2023-05-07T05:06:00;6.40;;;5.72;;
19754;SDS011;10036;47.812;9.274;2023-05-07T05:08:28;10.60;;;5.78;;
19754;SDS011;10036;47.812;9.274;2023-05-07T05:10:56;5.72;;;5.22;;
19754;SDS011;10036;47.812;9.274;2023-05-07T05:13:23;7.10;;;4.97;;
19754;SDS011;10036;47.812;9.274;2023-05-07T05:15:50;8.20;;;5.07;;
19754;SDS011;10036;47.812;9.274;2023-05-07T05:18:16;6.13;;;5.43;;
19754;SDS011;10036;47.812;9.274;2023-05-07T05:20:43;5.72;;;5.15;;
19754;SDS011;10036;47.812;9.274;2023-05-07T05:23:10;8.25;;;5.00;;
19754;SDS011;10036;47.812;9.274;2023-05-07T05:25:38;5.45;;;4.95;;
19754;SDS011;10036;47.812;9.274;2023-05-07T05:28:05;5.43;;;4.75;;
19754;SDS011;10036;47.812;9.274;2023-05-07T05:30:32;7.63;;;5.15;;
19754;SDS011;10036;47.812;9.274;2023-05-07T05:32:59;6.82;;;5.25;;
19754;SDS011;10036;47.812;9.274;2023-05-07T05:35:26;6.70;;;5.05;;
19754;SDS011;10036;47.812;9.274;2023-05-07T05:37:53;5.78;;;4.32;;
19754;SDS011;10036;47.812;9.274;2023-05-07T05:40:20;8.85;;;5.18;;
19754;SDS011;10036;47.812;9.274;2023-05-07T05:42:48;6.18;;;5.00;;
19754;SDS011;10036;47.812;9.274;2023-05-07T05:45:15;6.45;;;4.68;;
19754;SDS011;10036;47.812;9.274;2023-05-07T05:47:43;6.90;;;4.72;;
19754;SDS011;10036;47.812;9.274;2023-05-07T05:50:10;5.18;;;4.68;;
19754;SDS011;10036;47.812;9.274;2023-05-07T05:52:37;6.20;;;5.55;;
19754;SDS011;10036;47.812;9.274;2023-05-07T05:55:06;5.63;;;5.07;;
19754;SDS011;10036;47.812;9.274;2023-05-07T05:57:33;6.22;;;5.18;;
19754;SDS011;10036;47.812;9.274;2023-05-07T06:00:02;5.75;;;5.07;;
19754;SDS011;10036;47.812;9.274;2023-05-07T06:02:29;7.43;;;5.05;;
19754;SDS011;10036;47.812;9.274;2023-05-07T06:04:56;7.47;;;5.03;;
19754;SDS011;10036;47.812;9.274;2023-05-07T06:07:23;5.18;;;4.68;;
19754;SDS011;10036;47.812;9.274;2023-05-07T06:09:49;5.43;;;4.78;;
19754;SDS011;10036;47.812;9.274;2023-05-07T06:12:16;7.15;;;4.88;;
19754;SDS011;10036;47.812;9.274;2023-05-07T06:14:43;5.07;;;4.57;;
19754;SDS011;10036;47.812;9.274;2023-05-07T06:17:11;6.22;;;4.50;;
19754;SDS011;10036;47.812;9.274;2023-05-07T06:19:38;6.68;;;4.82;;
19754;SDS011;10036;47.812;9.274;2023-05-07T06:22:05;7.45;;;4.40;;
19754;SDS011;10036;47.812;9.274;2023-05-07T06:24:32;6.53;;;5.07;;
19754;SDS011;10036;47.812;9.274;2023-05-07T06:26:59;6.32;;;5.07;;
19754;SDS011;10036;47.812;9.274;2023-05-07T06:29:26;5.13;;;4.72;;
19754;SDS011;10036;47.812;9.274;2023-05-07T06:31:55;7.32;;;5.05;;
19754;SDS011;10036;47.812;9.274;2023-05-07T06:34:23;7.00;;;4.53;;
19754;SDS011;10036;47.812;9.274;2023-05-07T06:36:50;4.63;;;3.70;;
19754;SDS011;10036;47.812;9.274;2023-05-07T06:39:17;6.82;;;4.00;;
19754;SDS011;10036;47.812;9.274;2023-05-07T06:41:44;4.07;;;3.67;;
19754;SDS011;10036;47.812;9.274;2023-05-07T06:44:10;4.65;;;4.15;;
19754;SDS011;10036;47.812;9.274;2023-05-07T06:46:37;4.03;;;3.63;;
19754;SDS011;10036;47.812;9.274;2023-05-07T06:49:04;5.15;;;3.90;;
19754;SDS011;10036;47.812;9.274;2023-05-07T06:51:32;5.85;;;3.50;;
19754;SDS011;10036;47.812;9.274;2023-05-07T06:53:59;6.47;;;3.45;;
19754;SDS011;10036;47.812;9.274;2023-05-07T06:56:26;3.45;;;3.10;;
19754;SDS011;10036;47.812;9.274;2023-05-07T06:58:53;4.38;;;3.47;;
19754;SDS011;10036;47.812;9.274;2023-05-07T07:01:20;5.90;;;3.45;;
19754;SDS011;10036;47.812;9.274;2023-05-07T07:03:47;4.15;;;3.70;;
19754;SDS011;10036;47.812;9.274;2023-05-07T07:06:14;4.63;;;3.20;;
19754;SDS011;10036;47.812;9.274;2023-05-07T07:08:42;3.92;;;3.50;;
19754;SDS011;10036;47.812;9.274;2023-05-07T07:11:09;5.45;;;3.63;;
19754;SDS011;10036;47.812;9.274;2023-05-07T07:13:36;3.90;;;3.60;;
19754;SDS011;10036;47.812;9.274;2023-05-07T07:16:03;3.53;;;3.20;;
19754;SDS011;10036;47.812;9.274;2023-05-07T07:18:30;5.88;;;3.50;;
19754;SDS011;10036;47.812;9.274;2023-05-07T07:20:57;3.50;;;3.13;;
19754;SDS011;10036;47.812;9.274;2023-05-07T07:23:24;4.20;;;3.20;;
19754;SDS011;10036;47.812;9.274;2023-05-07T07:25:52;4.00;;;3.40;;
19754;SDS011;10036;47.812;9.274;2023-05-07T07:28:20;3.70;;;3.22;;
19754;SDS011;10036;47.812;9.274;2023-05-07T07:30:47;5.05;;;3.20;;
19754;SDS011;10036;47.812;9.274;2023-05-07T07:33:14;3.17;;;2.88;;
19754;SDS011;10036;47.812;9.274;2023-05-07T07:35:41;5.85;;;3.38;;
19754;SDS011;10036;47.812;9.274;2023-05-07T07:38:08;4.72;;;3.05;;
19754;SDS011;10036;47.812;9.274;2023-05-07T07:40:35;5.45;;;3.40;;
19754;SDS011;10036;47.812;9.274;2023-05-07T07:43:03;5.60;;;3.30;;
19754;SDS011;10036;47.812;9.274;2023-05-07T07:45:31;4.18;;;3.60;;
19754;SDS011;10036;47.812;9.274;2023-05-07T07:47:58;3.92;;;3.22;;
19754;SDS011;10036;47.812;9.274;2023-05-07T07:50:24;4.20;;;3.17;;
19754;SDS011;10036;47.812;9.274;2023-05-07T07:52:51;3.50;;;3.20;;
19754;SDS011;10036;47.812;9.274;2023-05-07T07:55:19;4.22;;;3.58;;
19754;SDS011;10036;47.812;9.274;2023-05-07T07:57:48;4.50;;;3.20;;
19754;SDS011;10036;47.812;9.274;2023-05-07T08:00:17;4.07;;;3.53;;
19754;SDS011;10036;47.812;9.274;2023-05-07T08:02:45;6.28;;;3.88;;
19754;SDS011;10036;47.812;9.274;2023-05-07T08:05:13;3.50;;;3.20;;
19754;SDS011;10036;47.812;9.274;2023-05-07T08:07:40;3.55;;;3.22;;
19754;SDS011;10036;47.812;9.274;2023-05-07T08:10:07;4.80;;;3.28;;
19754;SDS011;10036;47.812;9.274;2023-05-07T08:12:35;3.80;;;3.17;;
19754;SDS011;10036;47.812;9.274;2023-05-07T08:18:25;4.55;;;3.50;;
19754;SDS011;10036;47.812;9.274;2023-05-07T08:20:54;4.25;;;3.25;;
19754;SDS011;10036;47.812;9.274;2023-05-07T08:23:20;5.85;;;3.40;;
19754;SDS011;10036;47.812;9.274;2023-05-07T08:25:47;3.60;;;3.00;;
19754;SDS011;10036;47.812;9.274;2023-05-07T08:28:15;3.58;;;3.20;;
19754;SDS011;10036;47.812;9.274;2023-05-07T08:30:41;3.75;;;3.25;;
19754;SDS011;10036;47.812;9.274;2023-05-07T08:33:08;4.28;;;3.22;;
19754;SDS011;10036;47.812;9.274;2023-05-07T08:38:59;3.85;;;3.47;;
19754;SDS011;10036;47.812;9.274;2023-05-07T08:41:26;4.35;;;3.38;;
19754;SDS011;10036;47.812;9.274;2023-05-07T08:43:52;4.40;;;2.90;;
19754;SDS011;10036;47.812;9.274;2023-05-07T08:46:22;3.53;;;3.20;;
19754;SDS011;10036;47.812;9.274;2023-05-07T08:48:49;3.58;;;3.15;;
19754;SDS011;10036;47.812;9.274;2023-05-07T08:51:17;3.97;;;3.53;;
19754;SDS011;10036;47.812;9.274;2023-05-07T08:53:46;5.10;;;3.03;;
19754;SDS011;10036;47.812;9.274;2023-05-07T08:56:16;3.53;;;3.25;;
19754;SDS011;10036;47.812;9.274;2023-05-07T08:58:45;5.57;;;3.60;;
19754;SDS011;10036;47.812;9.274;2023-05-07T09:01:13;4.15;;;3.42;;
19754;SDS011;10036;47.812;9.274;2023-05-07T09:03:41;3.75;;;3.45;;
19754;SDS011;10036;47.812;9.274;2023-05-07T09:06:10;7.03;;;3.45;;
19754;SDS011;10036;47.812;9.274;2023-05-07T09:08:37;6.30;;;3.50;;
19754;SDS011;10036;47.812;9.274;2023-05-07T09:11:03;4.45;;;3.30;;
19754;SDS011;10036;47.812;9.274;2023-05-07T09:13:32;3.35;;;3.05;;
19754;SDS011;10036;47.812;9.274;2023-05-07T09:15:59;4.82;;;3.40;;
19754;SDS011;10036;47.812;9.274;2023-05-07T09:18:40;4.15;;;3.67;;
19754;SDS011;10036;47.812;9.274;2023-05-07T09:21:09;4.43;;;3.90;;
19754;SDS011;10036;47.812;9.274;2023-05-07T09:23:37;8.15;;;4.38;;
19754;SDS011;10036;47.812;9.274;2023-05-07T09:26:04;4.55;;;4.00;;
19754;SDS011;10036;47.812;9.274;2023-05-07T09:28:36;5.15;;;4.47;;
19754;SDS011;10036;47.812;9.274;2023-05-07T09:31:04;4.50;;;3.80;;
19754;SDS011;10036;47.812;9.274;2023-05-07T09:33:31;7.15;;;3.60;;
19754;SDS011;10036;47.812;9.274;2023-05-07T09:35:58;6.78;;;4.18;;
19754;SDS011;10036;47.812;9.274;2023-05-07T09:38:30;6.93;;;4.03;;
19754;SDS011;10036;47.812;9.274;2023-05-07T09:41:07;5.50;;;3.95;;
19754;SDS011;10036;47.812;9.274;2023-05-07T09:43:37;6.18;;;4.35;;
19754;SDS011;10036;47.812;9.274;2023-05-07T09:46:08;6.20;;;4.22;;
19754;SDS011;10036;47.812;9.274;2023-05-07T09:48:38;6.25;;;3.90;;
19754;SDS011;10036;47.812;9.274;2023-05-07T09:51:09;4.22;;;3.85;;
19754;SDS011;10036;47.812;9.274;2023-05-07T09:53:43;4.82;;;4.05;;
19754;SDS011;10036;47.812;9.274;2023-05-07T09:56:12;4.40;;;3.35;;
19754;SDS011;10036;47.812;9.274;2023-05-07T09:58:42;6.03;;;3.55;;
19754;SDS011;10036;47.812;9.274;2023-05-07T10:01:11;4.65;;;2.97;;
19754;SDS011;10036;47.812;9.274;2023-05-07T10:03:39;4.07;;;2.83;;
19754;SDS011;10036;47.812;9.274;2023-05-07T10:06:06;3.58;;;3.22;;
19754;SDS011;10036;47.812;9.274;2023-05-07T10:08:35;5.60;;;3.60;;
19754;SDS011;10036;47.812;9.274;2023-05-07T10:11:03;6.90;;;3.28;;
19754;SDS011;10036;47.812;9.274;2023-05-07T10:13:30;3.65;;;3.00;;
19754;SDS011;10036;47.812;9.274;2023-05-07T10:16:00;4.07;;;3.50;;
19754;SDS011;10036;47.812;9.274;2023-05-07T10:18:27;5.18;;;3.38;;
19754;SDS011;10036;47.812;9.274;2023-05-07T10:20:58;6.00;;;2.75;;
19754;SDS011;10036;47.812;9.274;2023-05-07T10:23:30;3.20;;;2.60;;
19754;SDS011;10036;47.812;9.274;2023-05-07T10:25:59;3.70;;;2.90;;
19754;SDS011;10036;47.812;9.274;2023-05-07T10:28:27;3.03;;;2.58;;
19754;SDS011;10036;47.812;9.274;2023-05-07T10:31:03;2.70;;;2.50;;
19754;SDS011;10036;47.812;9.274;2023-05-07T10:33:41;3.03;;;2.70;;
19754;SDS011;10036;47.812;9.274;2023-05-07T10:36:10;4.30;;;2.80;;
19754;SDS011;10036;47.812;9.274;2023-05-07T10:38:37;3.90;;;2.40;;
19754;SDS011;10036;47.812;9.274;2023-05-07T10:41:07;3.63;;;2.67;;
19754;SDS011;10036;47.812;9.274;2023-05-07T10:43:38;2.50;;;2.30;;
19754;SDS011;10036;47.812;9.274;2023-05-07T10:46:11;5.00;;;2.53;;
19754;SDS011;10036;47.812;9.274;2023-05-07T10:51:32;4.35;;;2.40;;
19754;SDS011;10036;47.812;9.274;2023-05-07T10:56:48;4.20;;;1.50;;
19754;SDS011;10036;47.812;9.274;2023-05-07T10:59:35;4.78;;;2.08;;
19754;SDS011;10036;47.812;9.274;2023-05-07T11:02:12;2.95;;;1.85;;
19754;SDS011;10036;47.812;9.274;2023-05-07T11:04:40;4.38;;;2.03;;
19754;SDS011;10036;47.812;9.274;2023-05-07T11:07:15;3.25;;;1.77;;
19754;SDS011;10036;47.812;9.274;2023-05-07T11:09:56;2.08;;;1.88;;
19754;SDS011;10036;47.812;9.274;2023-05-07T11:15:34;2.45;;;1.90;;
19754;SDS011;10036;47.812;9.274;2023-05-07T11:18:04;2.65;;;2.13;;
19754;SDS011;10036;47.812;9.274;2023-05-07T11:20:47;3.08;;;2.00;;
19754;SDS011;10036;47.812;9.274;2023-05-07T11:26:27;3.83;;;1.88;;
19754;SDS011;10036;47.812;9.274;2023-05-07T11:28:56;2.20;;;2.00;;
19754;SDS011;10036;47.812;9.274;2023-05-07T11:31:25;1.90;;;1.80;;
19754;SDS011;10036;47.812;9.274;2023-05-07T11:33:56;3.45;;;1.83;;
19754;SDS011;10036;47.812;9.274;2023-05-07T11:36:24;2.72;;;1.80;;
19754;SDS011;10036;47.812;9.274;2023-05-07T11:38:51;2.15;;;1.95;;
19754;SDS011;10036;47.812;9.274;2023-05-07T11:41:18;2.67;;;1.90;;
19754;SDS011;10036;47.812;9.274;2023-05-07T11:43:55;2.53;;;2.00;;
19754;SDS011;10036;47.812;9.274;2023-05-07T11:46:23;2.42;;;2.00;;
19754;SDS011;10036;47.812;9.274;2023-05-07T11:48:50;2.38;;;1.83;;
19754;SDS011;10036;47.812;9.274;2023-05-07T11:51:22;3.30;;;1.88;;
19754;SDS011;10036;47.812;9.274;2023-05-07T11:53:51;1.95;;;1.75;;
19754;SDS011;10036;47.812;9.274;2023-05-07T11:56:18;2.10;;;1.90;;
19754;SDS011;10036;47.812;9.274;2023-05-07T11:58:46;2.92;;;1.90;;
19754;SDS011;10036;47.812;9.274;2023-05-07T12:01:14;4.18;;;2.08;;
19754;SDS011;10036;47.812;9.274;2023-05-07T12:03:42;2.80;;;1.80;;
19754;SDS011;10036;47.812;9.274;2023-05-07T12:06:11;2.85;;;2.10;;
19754;SDS011;10036;47.812;9.274;2023-05-07T12:08:40;3.83;;;1.92;;
19754;SDS011;10036;47.812;9.274;2023-05-07T12:11:08;3.92;;;2.10;;
19754;SDS011;10036;47.812;9.274;2023-05-07T12:13:36;2.20;;;2.00;;
19754;SDS011;10036;47.812;9.274;2023-05-07T12:16:04;3.50;;;2.10;;
19754;SDS011;10036;47.812;9.274;2023-05-07T12:18:32;2.25;;;1.77;;
19754;SDS011;10036;47.812;9.274;2023-05-07T12:21:01;5.60;;;2.10;;
19754;SDS011;10036;47.812;9.274;2023-05-07T12:23:28;2.97;;;1.92;;
19754;SDS011;10036;47.812;9.274;2023-05-07T12:25:57;3.60;;;2.25;;
19754;SDS011;10036;47.812;9.274;2023-05-07T12:28:26;2.50;;;2.10;;
19754;SDS011;10036;47.812;9.274;2023-05-07T12:30:53;3.55;;;2.00;;
19754;SDS011;10036;47.812;9.274;2023-05-07T12:33:23;4.53;;;2.40;;
19754;SDS011;10036;47.812;9.274;2023-05-07T12:35:52;2.72;;;2.30;;
19754;SDS011;10036;47.812;9.274;2023-05-07T12:38:21;4.00;;;2.30;;
19754;SDS011;10036;47.812;9.274;2023-05-07T12:40:48;3.55;;;2.17;;
19754;SDS011;10036;47.812;9.274;2023-05-07T12:43:18;3.13;;;2.15;;
19754;SDS011;10036;47.812;9.274;2023-05-07T12:45:46;3.15;;;2.15;;
19754;SDS011;10036;47.812;9.274;2023-05-07T12:48:15;3.22;;;2.30;;
19754;SDS011;10036;47.812;9.274;2023-05-07T12:50:42;3.75;;;2.10;;
19754;SDS011;10036;47.812;9.274;2023-05-07T12:53:09;2.88;;;2.10;;
19754;SDS011;10036;47.812;9.274;2023-05-07T12:55:40;2.95;;;2.30;;
19754;SDS011;10036;47.812;9.274;2023-05-07T12:58:08;3.60;;;2.13;;
19754;SDS011;10036;47.812;9.274;2023-05-07T13:00:43;3.05;;;2.38;;
19754;SDS011;10036;47.812;9.274;2023-05-07T13:03:11;4.28;;;2.13;;
19754;SDS011;10036;47.812;9.274;2023-05-07T13:05:39;3.30;;;2.17;;
19754;SDS011;10036;47.812;9.274;2023-05-07T13:08:06;2.70;;;2.15;;
19754;SDS011;10036;47.812;9.274;2023-05-07T13:10:34;2.90;;;2.33;;
19754;SDS011;10036;47.812;9.274;2023-05-07T13:13:01;1.95;;;1.85;;
19754;SDS011;10036;47.812;9.274;2023-05-07T13:15:29;2.75;;;2.20;;
19754;SDS011;10036;47.812;9.274;2023-05-07T13:17:57;3.30;;;2.55;;
19754;SDS011;10036;47.812;9.274;2023-05-07T13:20:24;3.65;;;2.30;;
19754;SDS011;10036;47.812;9.274;2023-05-07T13:22:51;2.53;;;2.33;;
19754;SDS011;10036;47.812;9.274;2023-05-07T13:25:18;2.22;;;1.98;;
19754;SDS011;10036;47.812;9.274;2023-05-07T13:27:45;3.05;;;2.42;;
19754;SDS011;10036;47.812;9.274;2023-05-07T13:30:12;4.43;;;2.10;;
19754;SDS011;10036;47.812;9.274;2023-05-07T13:32:39;4.55;;;2.42;;
19754;SDS011;10036;47.812;9.274;2023-05-07T13:35:07;3.13;;;1.85;;
19754;SDS011;10036;47.812;9.274;2023-05-07T13:37:35;2.58;;;2.00;;
19754;SDS011;10036;47.812;9.274;2023-05-07T13:40:02;3.80;;;2.28;;
19754;SDS011;10036;47.812;9.274;2023-05-07T13:42:29;3.25;;;2.20;;
19754;SDS011;10036;47.812;9.274;2023-05-07T13:44:56;5.22;;;2.20;;
19754;SDS011;10036;47.812;9.274;2023-05-07T13:47:23;2.55;;;2.10;;
19754;SDS011;10036;47.812;9.274;2023-05-07T13:49:50;3.83;;;2.38;;
19754;SDS011;10036;47.812;9.274;2023-05-07T13:52:18;2.63;;;2.13;;
19754;SDS011;10036;47.812;9.274;2023-05-07T13:54:46;3.70;;;2.30;;
19754;SDS011;10036;47.812;9.274;2023-05-07T13:57:13;2.92;;;2.30;;
19754;SDS011;10036;47.812;9.274;2023-05-07T13:59:40;3.08;;;2.53;;
19754;SDS011;10036;47.812;9.274;2023-05-07T14:02:07;3.22;;;2.33;;
19754;SDS011;10036;47.812;9.274;2023-05-07T14:04:34;4.22;;;1.80;;
19754;SDS011;10036;47.812;9.274;2023-05-07T14:07:01;3.53;;;1.80;;
19754;SDS011;10036;47.812;9.274;2023-05-07T14:09:29;2.30;;;1.70;;
19754;SDS011;10036;47.812;9.274;2023-05-07T14:11:56;3.92;;;1.70;;
19754;SDS011;10036;47.812;9.274;2023-05-07T14:14:25;1.92;;;1.63;;
19754;SDS011;10036;47.812;9.274;2023-05-07T14:16:52;1.63;;;1.50;;
19754;SDS011;10036;47.812;9.274;2023-05-07T14:19:18;2.53;;;1.60;;
19754;SDS011;10036;47.812;9.274;2023-05-07T14:21:47;1.75;;;1.60;;
19754;SDS011;10036;47.812;9.274;2023-05-07T14:24:14;3.03;;;1.50;;
19754;SDS011;10036;47.812;9.274;2023-05-07T14:26:42;2.63;;;1.70;;
19754;SDS011;10036;47.812;9.274;2023-05-07T14:29:10;3.17;;;1.55;;
19754;SDS011;10036;47.812;9.274;2023-05-07T14:31:37;4.28;;;1.80;;
19754;SDS011;10036;47.812;9.274;2023-05-07T14:34:04;2.13;;;1.70;;
19754;SDS011;10036;47.812;9.274;2023-05-07T14:36:31;2.10;;;1.90;;
19754;SDS011;10036;47.812;9.274;2023-05-07T14:38:57;1.73;;;1.50;;
19754;SDS011;10036;47.812;9.274;2023-05-07T14:41:24;2.55;;;1.52;;
19754;SDS011;10036;47.812;9.274;2023-05-07T14:43:53;1.75;;;1.60;;
19754;SDS011;10036;47.812;9.274;2023-05-07T14:46:20;2.35;;;1.50;;
19754;SDS011;10036;47.812;9.274;2023-05-07T14:48:46;3.00;;;1.65;;
19754;SDS011;10036;47.812;9.274;2023-05-07T14:51:13;1.48;;;1.38;;
19754;SDS011;10036;47.812;9.274;2023-05-07T14:53:40;2.05;;;1.45;;
19754;SDS011;10036;47.812;9.274;2023-05-07T14:56:07;1.50;;;1.40;;
19754;SDS011;10036;47.812;9.274;2023-05-07T14:58:35;2.10;;;1.58;;
19754;SDS011;10036;47.812;9.274;2023-05-07T15:01:03;2.00;;;1.80;;
19754;SDS011;10036;47.812;9.274;2023-05-07T15:03:30;2.38;;;1.63;;
19754;SDS011;10036;47.812;9.274;2023-05-07T15:05:57;2.63;;;1.60;;
19754;SDS011;10036;47.812;9.274;2023-05-07T15:08:24;3.05;;;1.88;;
19754;SDS011;10036;47.812;9.274;2023-05-07T15:10:51;3.30;;;1.63;;